< < Back
Terminal Aerodrome Forecast


Current Version              Previous Versions:   1  2  3  4  5  6  7  8  9  

Terminal Aerodrome Forecast

986
FTUS42 KGSP 242320
TAFCLT
TAF
KCLT 242320Z 2500/2524 33004KT P6SM SCT060 BKN250
     FM250300 01004KT P6SM FEW070
     FM251400 03007KT P6SM FEW060 SCT250=



Latest METAR

415
SAUS70 KWBC 251500 RRA
MTRCLT
METAR KCLT 251452Z 03009G21KT 10SM SCT075 SCT250 29/19 A3013 RMK AO2
SLP190 T02940189 51014


USA.gov is the U.S. government's official web portal to all federal, state and local government web resources and services.